Flight Track Log - Related Links

Times and Time Zones

All times are in EDT time to prevent confusion due to time zone crossing. See the GLA182 flight status page for this flight to view local times or setup timezone preferences in your user account.

Time Position Orientation Groundspeed Altitude Reporting Facility
EDT Latitude Longitude Course Direction KTS MPH feet Rate Location/Type
Mon 08:39:05 AM 44.9000 -93.2333 301° West 161 185 1,900  Level Minneapolis TRACON
Mon 08:40:06 AM 44.9242 -93.2906 301° West 174 200 3,600 1,610 Climbing Minneapolis Center
Mon 08:41:08 AM 44.9481 -93.3506 299° West 182 209 5,200 1,659 Climbing Minneapolis Center
Mon 08:42:09 AM 44.9586 -93.4233 282° West 188 216 7,000 1,902 Climbing Minneapolis Center
Mon 08:43:11 AM 44.9756 -93.5100 285° West 190 219 9,100 1,805 Climbing Minneapolis Center
Mon 08:44:12 AM 44.9814 -93.5861 276° West 195 224 10,700 1,317 Climbing Minneapolis Center
Mon 08:45:14 AM 44.9867 -93.6653 275° West 202 232 11,800 634 Climbing Minneapolis Center
Mon 08:46:15 AM 44.9892 -93.7531 272° West 227 261 12,000 146 Climbing Minneapolis Center
Mon 08:47:17 AM 44.9908 -93.8489 271° West 244 281 12,100 488 Climbing Minneapolis Center
Mon 08:48:18 AM 44.9947 -93.9447 273° West 242 278 13,000 1,073 Climbing Minneapolis Center
Mon 08:49:20 AM 44.9997 -94.0247 275° West 206 237 14,300 1,171 Climbing Minneapolis Center
Mon 08:50:21 AM 45.0069 -94.1186 276° West 204 235 15,400 780 Climbing Minneapolis Center
Mon 08:51:23 AM 45.0128 -94.2006 276° West 212 244 15,900 290 Climbing Minneapolis Center
Mon 08:52:25 AM 45.0131 -94.2903 270° West 230 265 16,000 49 Climbing Minneapolis Center
Mon 08:53:26 AM 45.0111 -94.3833 268° West 239 275 16,000  Level Minneapolis Center
Mon 08:54:28 AM 45.0100 -94.4767 269° West 239 275 16,000 -49 Level Minneapolis Center
Mon 08:55:29 AM 45.0103 -94.5711 270° West 241 277 15,900  Descending Minneapolis Center
Mon 08:56:30 AM 45.0081 -94.6764 268° West 239 275 16,000 49 Climbing Minneapolis Center
Mon 08:57:32 AM 45.0047 -94.7708 267° West 241 277 16,000  Level Minneapolis Center
Mon 08:58:33 AM 44.9983 -94.8653 265° West 242 278 16,000  Level Minneapolis Center
Mon 08:59:35 AM 44.9892 -94.9583 262° West 242 278 16,000  Level Minneapolis Center
Mon 09:00:36 AM 44.9811 -95.0525 263° West 242 278 16,000  Level Minneapolis Center
Mon 09:01:38 AM 44.9767 -95.1472 266° West 243 280 16,000  Level Minneapolis Center
Mon 09:02:39 AM 44.9708 -95.2597 266° West 240 276 16,000  Level Minneapolis Center
Mon 09:03:41 AM 44.9683 -95.3544 268° West 241 277 16,000  Level Minneapolis Center
Mon 09:04:42 AM 44.9669 -95.4500 269° West 243 280 16,000  Level Minneapolis Center
Mon 09:05:43 AM 44.9672 -95.5450 270° West 243 280 16,000  Level Minneapolis Center
Mon 09:06:45 AM 44.9669 -95.6394 270° West 243 280 16,000 -49 Level Minneapolis Center
Mon 09:07:46 AM 44.9669 -95.7356 270° West 244 281 15,900 -98 Descending Minneapolis Center
Mon 09:08:48 AM 44.9689 -95.8314 272° West 245 282 15,800 -585 Descending Minneapolis Center
Mon 09:09:49 AM 44.9689 -95.9078 270° West 245 282 14,700 -1,623 Descending Minneapolis Center
Mon 09:10:50 AM 44.9558 -96.0386 262° West 242 278 12,500 -1,707 Descending Minneapolis Center
Mon 09:11:52 AM 44.9397 -96.1283 256° West 239 275 11,200 -1,220 Descending Minneapolis Center
Mon 09:12:53 AM 44.9281 -96.2211 260° West 240 276 10,000 -1,475 Descending Minneapolis Center
Mon 09:13:54 AM 44.9158 -96.3103 259° West 236 272 8,200 -1,268 Descending Minneapolis Center
Mon 09:14:56 AM 44.9183 -96.3997 272° West 232 267 7,400 -732 Descending Minneapolis Center
Mon 09:15:57 AM 44.9222 -96.4850 274° West 226 260 6,700 -732 Descending Minneapolis Center
Mon 09:16:59 AM 44.9261 -96.5719 274° West 224 258 5,900 -537 Descending Minneapolis Center
Mon 09:18:00 AM 44.9256 -96.6744 270° West 221 254 5,600 -244 Descending Minneapolis Center
Mon 09:19:02 AM 44.9133 -96.7622 259° West 224 258 5,400 -195 Descending Minneapolis Center
Mon 09:20:03 AM 44.9022 -96.8500 260° West 226 260 5,200 -439 Descending Minneapolis Center
Mon 09:21:05 AM 44.8900 -96.9389 259° West 228 262 4,500 -780 Descending Minneapolis Center
Mon 09:22:06 AM 44.8808 -97.0211 261° West 225 259 3,600 -780 Descending Minneapolis Center
Mon 09:23:08 AM 44.8792 -97.0900 268° West 197 227 2,900 -732 Descending Minneapolis Center
Mon 09:24:09 AM 44.8964 -97.1453 294° West 209 241 2,100 -787 Descending Minneapolis Center

Login

Don't have an account? Register now (free) for customized features, flight alerts, and more!